sensor_id;sensor_type;location;lat;lon;timestamp;pressure;altitude;pressure_sealevel;temperature;humidity
68179;BME280;69812;42.632;23.440;2023-05-24T00:01:41;94890.53;;;7.55;88.93
68179;BME280;69812;42.632;23.440;2023-05-24T00:04:07;94899.59;;;7.48;89.21
68179;BME280;69812;42.632;23.440;2023-05-24T00:06:36;94898.22;;;7.44;90.33
68179;BME280;69812;42.632;23.440;2023-05-24T00:09:02;94897.94;;;7.58;90.08
68179;BME280;69812;42.632;23.440;2023-05-24T00:11:28;94895.94;;;7.62;90.26
68179;BME280;69812;42.632;23.440;2023-05-24T00:13:53;94907.78;;;7.63;89.76
68179;BME280;69812;42.632;23.440;2023-05-24T00:16:18;94903.72;;;7.60;90.44
68179;BME280;69812;42.632;23.440;2023-05-24T00:18:44;94904.19;;;7.66;90.52
68179;BME280;69812;42.632;23.440;2023-05-24T00:21:11;94898.06;;;7.57;90.90
68179;BME280;69812;42.632;23.440;2023-05-24T00:23:37;94886.91;;;7.58;90.95
68179;BME280;69812;42.632;23.440;2023-05-24T00:26:03;94899.34;;;7.51;91.33
68179;BME280;69812;42.632;23.440;2023-05-24T00:28:29;94901.66;;;7.54;91.56
68179;BME280;69812;42.632;23.440;2023-05-24T00:30:56;94900.03;;;7.53;91.60
68179;BME280;69812;42.632;23.440;2023-05-24T00:33:21;94900.16;;;7.52;91.27
68179;BME280;69812;42.632;23.440;2023-05-24T00:35:48;94904.31;;;7.64;91.47
68179;BME280;69812;42.632;23.440;2023-05-24T00:38:14;94900.63;;;7.46;91.67
68179;BME280;69812;42.632;23.440;2023-05-24T00:40:42;94899.06;;;7.33;91.45
68179;BME280;69812;42.632;23.440;2023-05-24T00:43:07;94898.47;;;7.30;91.35
68179;BME280;69812;42.632;23.440;2023-05-24T00:45:33;94898.47;;;7.30;91.45
68179;BME280;69812;42.632;23.440;2023-05-24T00:47:58;94898.69;;;7.38;90.96
68179;BME280;69812;42.632;23.440;2023-05-24T00:50:24;94900.78;;;7.33;91.36
68179;BME280;69812;42.632;23.440;2023-05-24T00:52:50;94904.00;;;7.35;91.16
68179;BME280;69812;42.632;23.440;2023-05-24T00:55:15;94895.34;;;7.37;91.42
68179;BME280;69812;42.632;23.440;2023-05-24T00:57:41;94905.38;;;7.50;91.59
68179;BME280;69812;42.632;23.440;2023-05-24T01:00:10;94904.59;;;7.38;91.60
68179;BME280;69812;42.632;23.440;2023-05-24T01:02:35;94904.38;;;7.30;91.63
68179;BME280;69812;42.632;23.440;2023-05-24T01:05:02;94897.06;;;7.26;91.21
68179;BME280;69812;42.632;23.440;2023-05-24T01:13:07;94900.00;;;7.10;90.44
68179;BME280;69812;42.632;23.440;2023-05-24T01:18:23;94907.31;;;7.03;90.38
68179;BME280;69812;42.632;23.440;2023-05-24T01:29:19;94907.09;;;6.84;90.67
68179;BME280;69812;42.632;23.440;2023-05-24T01:31:46;94915.78;;;7.04;91.01
68179;BME280;69812;42.632;23.440;2023-05-24T01:34:11;94917.63;;;7.02;90.99
68179;BME280;69812;42.632;23.440;2023-05-24T01:36:37;94907.44;;;6.90;90.50
68179;BME280;69812;42.632;23.440;2023-05-24T01:39:02;94917.31;;;6.84;90.90
68179;BME280;69812;42.632;23.440;2023-05-24T01:44:42;94921.13;;;6.78;90.74
68179;BME280;69812;42.632;23.440;2023-05-24T01:49:45;94919.84;;;6.84;90.44
68179;BME280;69812;42.632;23.440;2023-05-24T01:52:16;94918.47;;;6.68;90.70
68179;BME280;69812;42.632;23.440;2023-05-24T01:54:46;94918.22;;;6.71;90.66
68179;BME280;69812;42.632;23.440;2023-05-24T01:57:16;94910.44;;;6.62;90.76
68179;BME280;69812;42.632;23.440;2023-05-24T01:59:46;94923.19;;;6.62;91.06
68179;BME280;69812;42.632;23.440;2023-05-24T02:02:12;94924.00;;;6.62;91.17
68179;BME280;69812;42.632;23.440;2023-05-24T02:04:40;94925.97;;;6.58;90.66
68179;BME280;69812;42.632;23.440;2023-05-24T02:07:05;94918.41;;;6.57;90.54
68179;BME280;69812;42.632;23.440;2023-05-24T02:09:31;94919.13;;;6.59;90.68
68179;BME280;69812;42.632;23.440;2023-05-24T02:11:56;94918.09;;;6.62;90.51
68179;BME280;69812;42.632;23.440;2023-05-24T02:14:22;94910.56;;;6.60;90.73
68179;BME280;69812;42.632;23.440;2023-05-24T02:16:48;94895.81;;;6.52;90.52
68179;BME280;69812;42.632;23.440;2023-05-24T02:19:15;94918.22;;;6.60;90.44
68179;BME280;69812;42.632;23.440;2023-05-24T02:21:41;94909.25;;;6.54;90.21
68179;BME280;69812;42.632;23.440;2023-05-24T02:24:07;94907.75;;;6.52;90.35
68179;BME280;69812;42.632;23.440;2023-05-24T02:26:36;94890.59;;;6.43;90.38
68179;BME280;69812;42.632;23.440;2023-05-24T02:29:01;94901.06;;;6.62;90.39
68179;BME280;69812;42.632;23.440;2023-05-24T02:31:27;94909.41;;;6.53;90.22
68179;BME280;69812;42.632;23.440;2023-05-24T02:33:54;94895.34;;;6.47;90.35
68179;BME280;69812;42.632;23.440;2023-05-24T02:36:20;94897.34;;;6.55;90.37
68179;BME280;69812;42.632;23.440;2023-05-24T02:38:48;94895.47;;;6.46;89.93
68179;BME280;69812;42.632;23.440;2023-05-24T02:41:13;94893.41;;;6.51;89.99
68179;BME280;69812;42.632;23.440;2023-05-24T02:43:51;94901.50;;;6.56;90.32
68179;BME280;69812;42.632;23.440;2023-05-24T02:46:16;94900.00;;;6.53;90.50
68179;BME280;69812;42.632;23.440;2023-05-24T02:48:41;94905.34;;;6.62;90.58
68179;BME280;69812;42.632;23.440;2023-05-24T02:51:07;94898.25;;;6.65;90.69
68179;BME280;69812;42.632;23.440;2023-05-24T02:53:32;94907.66;;;6.76;91.08
68179;BME280;69812;42.632;23.440;2023-05-24T02:55:58;94894.69;;;6.79;91.40
68179;BME280;69812;42.632;23.440;2023-05-24T02:58:24;94897.91;;;6.70;91.59
68179;BME280;69812;42.632;23.440;2023-05-24T03:00:55;94900.84;;;6.88;92.42
68179;BME280;69812;42.632;23.440;2023-05-24T03:03:23;94886.22;;;6.78;92.60
68179;BME280;69812;42.632;23.440;2023-05-24T03:05:48;94897.94;;;6.81;92.71
68179;BME280;69812;42.632;23.440;2023-05-24T03:08:14;94911.41;;;6.83;93.13
68179;BME280;69812;42.632;23.440;2023-05-24T03:10:39;94900.25;;;6.73;93.20
68179;BME280;69812;42.632;23.440;2023-05-24T03:13:05;94899.44;;;6.84;93.16
68179;BME280;69812;42.632;23.440;2023-05-24T03:15:30;94903.38;;;6.88;93.02
68179;BME280;69812;42.632;23.440;2023-05-24T03:17:56;94919.03;;;7.06;92.96
68179;BME280;69812;42.632;23.440;2023-05-24T03:20:21;94902.78;;;6.95;92.68
68179;BME280;69812;42.632;23.440;2023-05-24T03:22:47;94909.06;;;7.14;93.19
68179;BME280;69812;42.632;23.440;2023-05-24T03:25:13;94915.63;;;7.28;93.17
68179;BME280;69812;42.632;23.440;2023-05-24T03:27:38;94920.84;;;7.49;93.64
68179;BME280;69812;42.632;23.440;2023-05-24T03:30:05;94928.03;;;7.55;93.69
68179;BME280;69812;42.632;23.440;2023-05-24T03:32:31;94929.59;;;7.67;93.25
68179;BME280;69812;42.632;23.440;2023-05-24T03:34:57;94938.28;;;7.76;93.59
68179;BME280;69812;42.632;23.440;2023-05-24T03:37:24;94924.81;;;7.85;93.32
68179;BME280;69812;42.632;23.440;2023-05-24T03:39:52;94924.28;;;8.02;93.28
68179;BME280;69812;42.632;23.440;2023-05-24T03:42:18;94942.75;;;8.27;93.26
68179;BME280;69812;42.632;23.440;2023-05-24T03:44:46;94939.41;;;8.69;93.23
68179;BME280;69812;42.632;23.440;2023-05-24T03:47:11;94943.69;;;9.99;93.31
68179;BME280;69812;42.632;23.440;2023-05-24T03:49:39;94939.09;;;11.46;91.31
68179;BME280;69812;42.632;23.440;2023-05-24T03:52:04;94937.66;;;12.69;87.95
68179;BME280;69812;42.632;23.440;2023-05-24T03:54:30;94932.66;;;13.70;81.44
68179;BME280;69812;42.632;23.440;2023-05-24T03:56:57;94916.94;;;14.72;73.49
68179;BME280;69812;42.632;23.440;2023-05-24T03:59:23;94936.84;;;15.67;69.19
68179;BME280;69812;42.632;23.440;2023-05-24T04:01:48;94939.78;;;16.64;65.23
68179;BME280;69812;42.632;23.440;2023-05-24T04:04:14;94925.47;;;17.51;62.84
68179;BME280;69812;42.632;23.440;2023-05-24T04:06:39;94930.44;;;18.40;58.57
68179;BME280;69812;42.632;23.440;2023-05-24T04:09:06;94941.84;;;19.23;54.51
68179;BME280;69812;42.632;23.440;2023-05-24T04:11:31;94931.78;;;19.90;50.31
68179;BME280;69812;42.632;23.440;2023-05-24T04:13:57;94942.09;;;20.25;47.57
68179;BME280;69812;42.632;23.440;2023-05-24T04:16:26;94938.75;;;20.64;46.86
68179;BME280;69812;42.632;23.440;2023-05-24T04:18:53;94934.59;;;21.62;44.19
68179;BME280;69812;42.632;23.440;2023-05-24T04:21:19;94942.56;;;22.57;41.36
68179;BME280;69812;42.632;23.440;2023-05-24T04:23:44;94933.44;;;23.16;41.36
68179;BME280;69812;42.632;23.440;2023-05-24T04:26:10;94951.81;;;23.90;39.37
68179;BME280;69812;42.632;23.440;2023-05-24T04:28:36;94946.19;;;24.47;37.21
68179;BME280;69812;42.632;23.440;2023-05-24T04:31:04;94946.06;;;24.84;36.25
68179;BME280;69812;42.632;23.440;2023-05-24T04:33:31;94937.72;;;24.75;35.34
68179;BME280;69812;42.632;23.440;2023-05-24T04:35:56;94943.38;;;24.49;35.38
68179;BME280;69812;42.632;23.440;2023-05-24T04:38:22;94942.53;;;24.18;37.14
68179;BME280;69812;42.632;23.440;2023-05-24T04:40:49;94942.13;;;24.63;36.08
68179;BME280;69812;42.632;23.440;2023-05-24T04:43:14;94957.50;;;25.25;35.78
68179;BME280;69812;42.632;23.440;2023-05-24T04:45:39;94945.50;;;25.41;34.03
68179;BME280;69812;42.632;23.440;2023-05-24T04:48:05;94972.19;;;25.02;34.26
68179;BME280;69812;42.632;23.440;2023-05-24T04:50:31;94960.56;;;24.98;35.31
68179;BME280;69812;42.632;23.440;2023-05-24T04:52:56;94966.03;;;24.97;34.17
68179;BME280;69812;42.632;23.440;2023-05-24T04:55:22;94970.50;;;25.44;33.58
68179;BME280;69812;42.632;23.440;2023-05-24T04:57:47;94966.19;;;26.01;33.41
68179;BME280;69812;42.632;23.440;2023-05-24T05:00:13;94979.78;;;26.84;32.65
68179;BME280;69812;42.632;23.440;2023-05-24T05:02:38;94967.81;;;27.11;31.52
68179;BME280;69812;42.632;23.440;2023-05-24T05:05:04;94970.56;;;27.33;30.52
68179;BME280;69812;42.632;23.440;2023-05-24T05:07:30;94968.97;;;27.76;29.69
68179;BME280;69812;42.632;23.440;2023-05-24T05:09:55;94969.06;;;28.25;29.71
68179;BME280;69812;42.632;23.440;2023-05-24T05:12:21;94973.03;;;28.82;28.96
68179;BME280;69812;42.632;23.440;2023-05-24T05:14:48;94971.78;;;28.90;27.85
68179;BME280;69812;42.632;23.440;2023-05-24T05:17:16;94967.06;;;29.29;29.25
68179;BME280;69812;42.632;23.440;2023-05-24T05:19:44;94967.63;;;29.79;26.85
68179;BME280;69812;42.632;23.440;2023-05-24T05:22:09;94961.13;;;30.07;26.73
68179;BME280;69812;42.632;23.440;2023-05-24T05:24:35;94968.41;;;30.63;26.65
68179;BME280;69812;42.632;23.440;2023-05-24T05:27:00;94963.97;;;30.99;25.32
68179;BME280;69812;42.632;23.440;2023-05-24T05:29:25;94955.69;;;31.16;25.34
68179;BME280;69812;42.632;23.440;2023-05-24T05:31:51;94952.50;;;31.50;25.30
68179;BME280;69812;42.632;23.440;2023-05-24T05:34:16;94951.75;;;32.15;24.67
68179;BME280;69812;42.632;23.440;2023-05-24T05:36:41;94952.72;;;32.73;23.77
68179;BME280;69812;42.632;23.440;2023-05-24T05:39:07;94977.09;;;31.66;25.58
68179;BME280;69812;42.632;23.440;2023-05-24T05:41:41;94966.47;;;31.76;25.49
68179;BME280;69812;42.632;23.440;2023-05-24T05:44:09;94970.84;;;32.17;24.25
68179;BME280;69812;42.632;23.440;2023-05-24T05:46:35;94964.47;;;32.18;24.59
68179;BME280;69812;42.632;23.440;2023-05-24T05:49:00;94965.41;;;32.82;24.95
68179;BME280;69812;42.632;23.440;2023-05-24T05:51:25;94960.47;;;32.65;24.04
68179;BME280;69812;42.632;23.440;2023-05-24T05:53:51;94967.84;;;33.66;23.52
68179;BME280;69812;42.632;23.440;2023-05-24T05:56:16;94971.47;;;33.99;22.25
68179;BME280;69812;42.632;23.440;2023-05-24T05:58:44;94972.22;;;32.93;22.91
68179;BME280;69812;42.632;23.440;2023-05-24T06:01:12;94973.72;;;32.25;24.15
68179;BME280;69812;42.632;23.440;2023-05-24T06:03:38;94978.75;;;32.71;23.68
68179;BME280;69812;42.632;23.440;2023-05-24T06:06:03;94980.75;;;32.90;23.58
68179;BME280;69812;42.632;23.440;2023-05-24T06:08:29;94964.91;;;32.80;23.75
68179;BME280;69812;42.632;23.440;2023-05-24T06:10:59;94983.00;;;33.41;22.92
68179;BME280;69812;42.632;23.440;2023-05-24T06:13:24;94981.59;;;34.59;22.07
68179;BME280;69812;42.632;23.440;2023-05-24T06:15:55;94987.41;;;34.85;21.56
68179;BME280;69812;42.632;23.440;2023-05-24T06:18:20;94970.69;;;33.74;22.58
68179;BME280;69812;42.632;23.440;2023-05-24T06:20:48;94985.06;;;34.22;22.84
68179;BME280;69812;42.632;23.440;2023-05-24T06:23:20;94976.28;;;33.49;22.48
68179;BME280;69812;42.632;23.440;2023-05-24T06:25:45;94979.41;;;33.80;22.27
68179;BME280;69812;42.632;23.440;2023-05-24T06:28:11;94980.16;;;35.37;20.97
68179;BME280;69812;42.632;23.440;2023-05-24T06:30:38;94971.00;;;35.71;20.62
68179;BME280;69812;42.632;23.440;2023-05-24T06:33:04;94972.97;;;36.21;19.70
68179;BME280;69812;42.632;23.440;2023-05-24T06:35:32;94964.84;;;37.08;19.16
68179;BME280;69812;42.632;23.440;2023-05-24T06:37:57;94968.00;;;37.32;18.10
68179;BME280;69812;42.632;23.440;2023-05-24T06:40:26;94963.97;;;38.93;18.17
68179;BME280;69812;42.632;23.440;2023-05-24T06:42:51;94967.19;;;40.19;16.99
68179;BME280;69812;42.632;23.440;2023-05-24T06:45:17;94967.91;;;39.99;16.94
68179;BME280;69812;42.632;23.440;2023-05-24T06:47:42;94965.91;;;41.01;15.55
68179;BME280;69812;42.632;23.440;2023-05-24T06:50:07;94955.50;;;41.45;15.21
68179;BME280;69812;42.632;23.440;2023-05-24T06:52:35;94957.47;;;42.59;13.85
68179;BME280;69812;42.632;23.440;2023-05-24T06:55:01;94953.25;;;42.33;14.00
68179;BME280;69812;42.632;23.440;2023-05-24T06:57:26;94961.69;;;42.32;14.56
68179;BME280;69812;42.632;23.440;2023-05-24T06:59:51;94951.38;;;42.09;14.03
68179;BME280;69812;42.632;23.440;2023-05-24T07:02:17;94956.72;;;43.62;13.75
68179;BME280;69812;42.632;23.440;2023-05-24T07:04:42;94957.94;;;44.87;12.42
68179;BME280;69812;42.632;23.440;2023-05-24T07:07:10;94949.28;;;45.20;12.03
68179;BME280;69812;42.632;23.440;2023-05-24T07:09:39;94942.50;;;42.61;13.77
68179;BME280;69812;42.632;23.440;2023-05-24T07:12:05;94941.28;;;42.59;13.93
68179;BME280;69812;42.632;23.440;2023-05-24T07:14:33;94945.81;;;44.06;12.48
68179;BME280;69812;42.632;23.440;2023-05-24T07:16:58;94945.28;;;43.05;13.19
68179;BME280;69812;42.632;23.440;2023-05-24T07:19:24;94954.50;;;43.48;13.09
68179;BME280;69812;42.632;23.440;2023-05-24T07:21:56;94952.22;;;43.66;13.51
68179;BME280;69812;42.632;23.440;2023-05-24T07:24:21;94949.47;;;45.77;12.19
68179;BME280;69812;42.632;23.440;2023-05-24T07:26:48;94949.31;;;46.46;11.01
68179;BME280;69812;42.632;23.440;2023-05-24T07:29:14;94960.34;;;46.34;11.28
68179;BME280;69812;42.632;23.440;2023-05-24T07:31:40;94952.03;;;46.50;11.24
68179;BME280;69812;42.632;23.440;2023-05-24T07:34:05;94952.47;;;47.64;10.27
68179;BME280;69812;42.632;23.440;2023-05-24T07:36:30;94947.94;;;47.79;10.21
68179;BME280;69812;42.632;23.440;2023-05-24T07:38:57;94950.25;;;47.77;9.97
68179;BME280;69812;42.632;23.440;2023-05-24T07:41:25;94944.34;;;49.58;9.24
68179;BME280;69812;42.632;23.440;2023-05-24T07:43:51;94941.59;;;49.97;9.07
68179;BME280;69812;42.632;23.440;2023-05-24T07:46:16;94955.56;;;50.46;9.71
68179;BME280;69812;42.632;23.440;2023-05-24T07:48:42;94940.78;;;50.32;9.09
68179;BME280;69812;42.632;23.440;2023-05-24T07:51:07;94938.09;;;51.13;8.60
68179;BME280;69812;42.632;23.440;2023-05-24T07:53:32;94935.84;;;52.36;8.00
68179;BME280;69812;42.632;23.440;2023-05-24T07:56:03;94939.00;;;52.31;8.01
68179;BME280;69812;42.632;23.440;2023-05-24T07:58:43;94936.72;;;50.77;9.06
68179;BME280;69812;42.632;23.440;2023-05-24T08:01:11;94940.47;;;49.30;9.04
68179;BME280;69812;42.632;23.440;2023-05-24T08:03:37;94933.88;;;47.22;10.63
68179;BME280;69812;42.632;23.440;2023-05-24T08:06:04;94930.69;;;45.42;11.30
68179;BME280;69812;42.632;23.440;2023-05-24T08:08:29;94929.69;;;42.18;14.45
68179;BME280;69812;42.632;23.440;2023-05-24T08:10:54;94933.72;;;43.53;13.09
68179;BME280;69812;42.632;23.440;2023-05-24T08:13:20;94926.81;;;44.77;12.28
68179;BME280;69812;42.632;23.440;2023-05-24T08:15:45;94924.59;;;43.73;12.65
68179;BME280;69812;42.632;23.440;2023-05-24T08:18:10;94933.25;;;39.85;16.83
68179;BME280;69812;42.632;23.440;2023-05-24T08:20:36;94916.34;;;41.47;15.43
68179;BME280;69812;42.632;23.440;2023-05-24T08:23:01;94925.25;;;41.60;15.38
68179;BME280;69812;42.632;23.440;2023-05-24T08:25:27;94930.16;;;36.71;20.12
68179;BME280;69812;42.632;23.440;2023-05-24T08:27:52;94912.94;;;33.27;20.41
68179;BME280;69812;42.632;23.440;2023-05-24T08:30:17;94916.81;;;31.87;23.18
68179;BME280;69812;42.632;23.440;2023-05-24T08:32:44;94912.81;;;30.63;24.52
68179;BME280;69812;42.632;23.440;2023-05-24T08:35:09;94928.16;;;30.97;23.70
68179;BME280;69812;42.632;23.440;2023-05-24T08:37:35;94918.84;;;32.10;22.46
68179;BME280;69812;42.632;23.440;2023-05-24T08:40:03;94914.88;;;30.40;23.05
68179;BME280;69812;42.632;23.440;2023-05-24T08:42:29;94915.75;;;28.82;24.67
68179;BME280;69812;42.632;23.440;2023-05-24T08:45:08;94928.97;;;28.01;26.10
68179;BME280;69812;42.632;23.440;2023-05-24T08:47:35;94915.53;;;26.52;26.37
68179;BME280;69812;42.632;23.440;2023-05-24T08:50:02;94935.00;;;25.93;26.51
68179;BME280;69812;42.632;23.440;2023-05-24T08:52:28;94926.22;;;25.35;26.48
68179;BME280;69812;42.632;23.440;2023-05-24T08:54:57;94924.47;;;24.94;30.40
68179;BME280;69812;42.632;23.440;2023-05-24T08:57:25;94910.72;;;24.45;31.84
68179;BME280;69812;42.632;23.440;2023-05-24T08:59:51;94910.97;;;24.13;33.57
68179;BME280;69812;42.632;23.440;2023-05-24T09:02:20;94909.09;;;24.02;30.75
68179;BME280;69812;42.632;23.440;2023-05-24T09:04:47;94912.63;;;23.95;31.67
68179;BME280;69812;42.632;23.440;2023-05-24T09:07:15;94920.69;;;24.24;30.36
68179;BME280;69812;42.632;23.440;2023-05-24T09:09:43;94909.31;;;24.30;30.04
68179;BME280;69812;42.632;23.440;2023-05-24T09:12:15;94922.31;;;24.25;31.04
68179;BME280;69812;42.632;23.440;2023-05-24T09:14:45;94928.78;;;23.92;31.09
68179;BME280;69812;42.632;23.440;2023-05-24T09:17:11;94924.44;;;23.86;31.11
68179;BME280;69812;42.632;23.440;2023-05-24T09:19:43;94919.53;;;24.20;33.96
68179;BME280;69812;42.632;23.440;2023-05-24T09:22:13;94917.16;;;24.60;34.33
68179;BME280;69812;42.632;23.440;2023-05-24T09:24:46;94914.09;;;24.87;32.61
68179;BME280;69812;42.632;23.440;2023-05-24T09:27:16;94906.59;;;24.79;29.77
68179;BME280;69812;42.632;23.440;2023-05-24T09:29:42;94902.28;;;24.43;30.92
68179;BME280;69812;42.632;23.440;2023-05-24T09:32:11;94917.81;;;23.84;30.63
68179;BME280;69812;42.632;23.440;2023-05-24T09:34:43;94913.78;;;23.99;31.51
68179;BME280;69812;42.632;23.440;2023-05-24T09:37:14;94925.59;;;23.90;29.79
68179;BME280;69812;42.632;23.440;2023-05-24T09:39:44;94908.03;;;23.91;33.64
68179;BME280;69812;42.632;23.440;2023-05-24T09:42:15;94906.03;;;24.05;30.96
68179;BME280;69812;42.632;23.440;2023-05-24T09:44:43;94904.94;;;23.82;32.19
68179;BME280;69812;42.632;23.440;2023-05-24T09:47:11;94907.09;;;23.48;30.84
68179;BME280;69812;42.632;23.440;2023-05-24T09:49:36;94899.56;;;23.77;33.34
68179;BME280;69812;42.632;23.440;2023-05-24T09:52:02;94897.66;;;24.14;32.14
68179;BME280;69812;42.632;23.440;2023-05-24T09:54:27;94886.81;;;23.81;31.62
68179;BME280;69812;42.632;23.440;2023-05-24T09:56:53;94900.84;;;23.86;29.92
68179;BME280;69812;42.632;23.440;2023-05-24T09:59:19;94903.91;;;24.13;31.70
68179;BME280;69812;42.632;23.440;2023-05-24T10:01:44;94898.25;;;24.28;28.37
68179;BME280;69812;42.632;23.440;2023-05-24T10:04:11;94892.66;;;24.25;28.71
68179;BME280;69812;42.632;23.440;2023-05-24T10:06:37;94889.94;;;24.31;28.70
68179;BME280;69812;42.632;23.440;2023-05-24T10:09:03;94889.22;;;24.24;27.77
68179;BME280;69812;42.632;23.440;2023-05-24T10:11:36;94887.78;;;23.98;29.38
68179;BME280;69812;42.632;23.440;2023-05-24T10:14:05;94901.94;;;24.09;30.59
68179;BME280;69812;42.632;23.440;2023-05-24T10:16:33;94892.53;;;24.19;28.72
68179;BME280;69812;42.632;23.440;2023-05-24T10:19:00;94878.22;;;24.46;29.55
68179;BME280;69812;42.632;23.440;2023-05-24T10:21:28;94895.34;;;24.18;28.71
68179;BME280;69812;42.632;23.440;2023-05-24T10:23:58;94887.44;;;24.36;28.17
68179;BME280;69812;42.632;23.440;2023-05-24T10:26:24;94883.44;;;24.46;30.00
68179;BME280;69812;42.632;23.440;2023-05-24T10:29:00;94893.22;;;24.69;29.93
68179;BME280;69812;42.632;23.440;2023-05-24T10:31:34;94880.53;;;24.89;30.23
68179;BME280;69812;42.632;23.440;2023-05-24T10:34:02;94884.84;;;24.48;29.26
68179;BME280;69812;42.632;23.440;2023-05-24T10:36:30;94879.06;;;24.16;30.45
68179;BME280;69812;42.632;23.440;2023-05-24T10:38:56;94870.38;;;24.04;30.89
68179;BME280;69812;42.632;23.440;2023-05-24T10:41:25;94866.91;;;24.33;29.28
68179;BME280;69812;42.632;23.440;2023-05-24T10:43:52;94863.91;;;24.60;31.82
68179;BME280;69812;42.632;23.440;2023-05-24T10:46:19;94872.91;;;24.88;28.24
68179;BME280;69812;42.632;23.440;2023-05-24T10:48:58;94867.19;;;24.91;27.77
68179;BME280;69812;42.632;23.440;2023-05-24T10:51:36;94866.97;;;24.69;28.73
68179;BME280;69812;42.632;23.440;2023-05-24T10:54:23;94862.31;;;24.94;29.53
68179;BME280;69812;42.632;23.440;2023-05-24T10:56:51;94854.41;;;24.83;28.20
68179;BME280;69812;42.632;23.440;2023-05-24T10:59:27;94865.94;;;25.05;28.60
68179;BME280;69812;42.632;23.440;2023-05-24T11:01:56;94859.09;;;25.28;27.60
68179;BME280;69812;42.632;23.440;2023-05-24T11:04:22;94847.56;;;25.29;26.80
68179;BME280;69812;42.632;23.440;2023-05-24T11:09:15;94848.97;;;24.72;27.45
68179;BME280;69812;42.632;23.440;2023-05-24T11:12:01;94843.66;;;24.37;27.85
68179;BME280;69812;42.632;23.440;2023-05-24T11:14:30;94857.84;;;24.59;29.03
68179;BME280;69812;42.632;23.440;2023-05-24T11:16:57;94849.81;;;24.43;27.55
68179;BME280;69812;42.632;23.440;2023-05-24T11:19:30;94850.09;;;24.53;29.39
68179;BME280;69812;42.632;23.440;2023-05-24T11:21:56;94838.34;;;24.67;27.47
68179;BME280;69812;42.632;23.440;2023-05-24T11:24:23;94842.63;;;25.09;27.47
68179;BME280;69812;42.632;23.440;2023-05-24T11:26:49;94842.06;;;25.18;26.13
68179;BME280;69812;42.632;23.440;2023-05-24T11:29:16;94842.88;;;24.95;26.46
68179;BME280;69812;42.632;23.440;2023-05-24T11:31:54;94853.41;;;24.60;27.14
68179;BME280;69812;42.632;23.440;2023-05-24T11:34:22;94845.94;;;23.91;27.73
68179;BME280;69812;42.632;23.440;2023-05-24T11:36:49;94835.94;;;24.00;27.29
68179;BME280;69812;42.632;23.440;2023-05-24T11:39:17;94835.22;;;24.47;26.59
68179;BME280;69812;42.632;23.440;2023-05-24T11:41:43;94837.25;;;24.33;25.74
68179;BME280;69812;42.632;23.440;2023-05-24T11:44:10;94827.50;;;24.75;26.75
68179;BME280;69812;42.632;23.440;2023-05-24T11:46:37;94818.81;;;24.87;28.25
68179;BME280;69812;42.632;23.440;2023-05-24T11:49:03;94828.50;;;25.21;26.73
68179;BME280;69812;42.632;23.440;2023-05-24T11:51:31;94833.91;;;25.44;27.57
68179;BME280;69812;42.632;23.440;2023-05-24T11:53:57;94828.69;;;25.72;25.41
68179;BME280;69812;42.632;23.440;2023-05-24T11:56:27;94825.53;;;25.58;26.78
68179;BME280;69812;42.632;23.440;2023-05-24T11:59:14;94811.88;;;25.73;26.63
68179;BME280;69812;42.632;23.440;2023-05-24T12:01:40;94817.91;;;25.45;25.46
68179;BME280;69812;42.632;23.440;2023-05-24T12:04:06;94812.66;;;24.93;26.99
68179;BME280;69812;42.632;23.440;2023-05-24T12:06:40;94798.28;;;24.84;26.88
68179;BME280;69812;42.632;23.440;2023-05-24T12:09:07;94807.16;;;25.06;26.95
68179;BME280;69812;42.632;23.440;2023-05-24T12:11:36;94804.53;;;25.06;29.89
68179;BME280;69812;42.632;23.440;2023-05-24T12:14:03;94798.31;;;24.60;26.61
68179;BME280;69812;42.632;23.440;2023-05-24T12:16:29;94804.81;;;24.57;30.03
68179;BME280;69812;42.632;23.440;2023-05-24T12:18:57;94803.59;;;25.24;27.60
68179;BME280;69812;42.632;23.440;2023-05-24T12:21:22;94804.06;;;25.09;26.64
68179;BME280;69812;42.632;23.440;2023-05-24T12:23:48;94795.88;;;25.46;26.95
68179;BME280;69812;42.632;23.440;2023-05-24T12:26:13;94800.84;;;25.59;25.96
68179;BME280;69812;42.632;23.440;2023-05-24T12:28:39;94795.97;;;25.51;26.73
68179;BME280;69812;42.632;23.440;2023-05-24T12:31:05;94793.53;;;25.78;27.11
68179;BME280;69812;42.632;23.440;2023-05-24T12:33:30;94784.38;;;25.35;27.46
68179;BME280;69812;42.632;23.440;2023-05-24T12:35:57;94786.28;;;24.99;27.31
68179;BME280;69812;42.632;23.440;2023-05-24T12:38:25;94791.09;;;24.91;28.50
68179;BME280;69812;42.632;23.440;2023-05-24T12:40:51;94772.63;;;24.74;27.96
68179;BME280;69812;42.632;23.440;2023-05-24T12:43:18;94787.66;;;24.78;29.05
68179;BME280;69812;42.632;23.440;2023-05-24T12:45:43;94779.34;;;24.70;27.70
68179;BME280;69812;42.632;23.440;2023-05-24T12:48:12;94784.19;;;25.13;27.14
68179;BME280;69812;42.632;23.440;2023-05-24T12:50:37;94781.47;;;25.08;26.99
68179;BME280;69812;42.632;23.440;2023-05-24T12:53:04;94786.25;;;25.23;27.17
68179;BME280;69812;42.632;23.440;2023-05-24T12:55:30;94784.84;;;25.61;28.88
68179;BME280;69812;42.632;23.440;2023-05-24T12:57:56;94777.00;;;25.49;26.73
68179;BME280;69812;42.632;23.440;2023-05-24T13:00:25;94772.25;;;25.46;27.36
68179;BME280;69812;42.632;23.440;2023-05-24T13:02:52;94772.13;;;25.70;27.84
68179;BME280;69812;42.632;23.440;2023-05-24T13:05:23;94781.50;;;25.94;27.46
68179;BME280;69812;42.632;23.440;2023-05-24T13:07:50;94772.13;;;25.70;27.19
68179;BME280;69812;42.632;23.440;2023-05-24T13:10:18;94784.59;;;25.62;29.87
68179;BME280;69812;42.632;23.440;2023-05-24T13:12:44;94760.00;;;25.11;31.21
68179;BME280;69812;42.632;23.440;2023-05-24T13:15:10;94763.28;;;25.18;33.08
68179;BME280;69812;42.632;23.440;2023-05-24T13:17:35;94767.03;;;25.34;31.99